sensor_id;sensor_type;location;lat;lon;timestamp;temperature;humidity
36458;DHT22;22480;50.546;12.292;2023-03-24T00:02:08;11.60;99.90
36458;DHT22;22480;50.546;12.292;2023-03-24T00:04:34;11.50;99.90
36458;DHT22;22480;50.546;12.292;2023-03-24T00:07:01;11.50;99.90
36458;DHT22;22480;50.546;12.292;2023-03-24T00:09:28;11.60;99.90
36458;DHT22;22480;50.546;12.292;2023-03-24T00:11:57;11.60;99.90
36458;DHT22;22480;50.546;12.292;2023-03-24T00:14:23;11.60;99.90
36458;DHT22;22480;50.546;12.292;2023-03-24T00:16:49;11.60;99.90
36458;DHT22;22480;50.546;12.292;2023-03-24T00:19:15;11.60;99.90
36458;DHT22;22480;50.546;12.292;2023-03-24T00:21:42;11.60;99.90
36458;DHT22;22480;50.546;12.292;2023-03-24T00:24:09;11.60;99.90
36458;DHT22;22480;50.546;12.292;2023-03-24T00:26:39;11.70;99.90
36458;DHT22;22480;50.546;12.292;2023-03-24T00:29:06;11.70;99.90
36458;DHT22;22480;50.546;12.292;2023-03-24T00:31:33;11.80;99.90
36458;DHT22;22480;50.546;12.292;2023-03-24T00:33:59;11.90;99.90
36458;DHT22;22480;50.546;12.292;2023-03-24T00:36:27;11.90;99.90
36458;DHT22;22480;50.546;12.292;2023-03-24T00:38:54;11.90;99.90
36458;DHT22;22480;50.546;12.292;2023-03-24T00:41:21;11.90;99.90
36458;DHT22;22480;50.546;12.292;2023-03-24T00:43:49;11.80;99.90
36458;DHT22;22480;50.546;12.292;2023-03-24T00:46:16;11.90;99.90
36458;DHT22;22480;50.546;12.292;2023-03-24T00:48:57;11.90;99.90
36458;DHT22;22480;50.546;12.292;2023-03-24T00:51:45;11.80;99.90
36458;DHT22;22480;50.546;12.292;2023-03-24T00:54:11;11.80;99.90
36458;DHT22;22480;50.546;12.292;2023-03-24T00:56:38;11.70;99.90
36458;DHT22;22480;50.546;12.292;2023-03-24T00:59:05;11.70;99.90
36458;DHT22;22480;50.546;12.292;2023-03-24T01:01:34;11.50;99.90
36458;DHT22;22480;50.546;12.292;2023-03-24T01:04:03;11.60;99.90
36458;DHT22;22480;50.546;12.292;2023-03-24T01:06:30;11.60;99.90
36458;DHT22;22480;50.546;12.292;2023-03-24T01:08:55;11.60;99.90
36458;DHT22;22480;50.546;12.292;2023-03-24T01:11:23;11.50;99.90
36458;DHT22;22480;50.546;12.292;2023-03-24T01:13:51;11.60;99.90
36458;DHT22;22480;50.546;12.292;2023-03-24T01:16:18;11.60;99.90
36458;DHT22;22480;50.546;12.292;2023-03-24T01:18:45;11.60;99.90
36458;DHT22;22480;50.546;12.292;2023-03-24T01:21:11;11.70;99.90
36458;DHT22;22480;50.546;12.292;2023-03-24T01:23:38;11.80;99.90
36458;DHT22;22480;50.546;12.292;2023-03-24T01:26:08;11.80;99.90
36458;DHT22;22480;50.546;12.292;2023-03-24T01:28:35;11.80;99.90
36458;DHT22;22480;50.546;12.292;2023-03-24T01:31:07;11.70;99.90
36458;DHT22;22480;50.546;12.292;2023-03-24T01:33:34;11.70;99.90
36458;DHT22;22480;50.546;12.292;2023-03-24T01:36:00;11.70;99.90
36458;DHT22;22480;50.546;12.292;2023-03-24T01:38:26;11.70;99.90
36458;DHT22;22480;50.546;12.292;2023-03-24T01:40:52;11.60;99.90
36458;DHT22;22480;50.546;12.292;2023-03-24T01:43:23;11.60;99.90
36458;DHT22;22480;50.546;12.292;2023-03-24T01:46:02;11.60;99.90
36458;DHT22;22480;50.546;12.292;2023-03-24T01:49:04;11.50;99.90
36458;DHT22;22480;50.546;12.292;2023-03-24T01:51:38;11.60;99.90
36458;DHT22;22480;50.546;12.292;2023-03-24T01:54:06;11.60;99.90
36458;DHT22;22480;50.546;12.292;2023-03-24T01:56:36;11.60;99.90
36458;DHT22;22480;50.546;12.292;2023-03-24T01:59:16;11.60;99.90
36458;DHT22;22480;50.546;12.292;2023-03-24T02:01:56;11.60;99.90
36458;DHT22;22480;50.546;12.292;2023-03-24T02:04:54;11.60;99.90
36458;DHT22;22480;50.546;12.292;2023-03-24T02:07:32;11.60;99.90
36458;DHT22;22480;50.546;12.292;2023-03-24T02:10:01;11.60;99.90
36458;DHT22;22480;50.546;12.292;2023-03-24T02:12:29;11.60;99.90
36458;DHT22;22480;50.546;12.292;2023-03-24T02:14:56;11.60;99.90
36458;DHT22;22480;50.546;12.292;2023-03-24T02:29:09;11.90;99.90
36458;DHT22;22480;50.546;12.292;2023-03-24T02:40:36;12.00;99.90
36458;DHT22;22480;50.546;12.292;2023-03-24T02:48:37;11.90;99.90
36458;DHT22;22480;50.546;12.292;2023-03-24T02:51:13;11.90;99.90
36458;DHT22;22480;50.546;12.292;2023-03-24T02:54:06;11.90;99.90
36458;DHT22;22480;50.546;12.292;2023-03-24T02:59:47;12.00;99.90
36458;DHT22;22480;50.546;12.292;2023-03-24T03:02:45;11.90;99.90
36458;DHT22;22480;50.546;12.292;2023-03-24T03:06:04;11.90;99.90
36458;DHT22;22480;50.546;12.292;2023-03-24T03:08:13;11.90;99.90
36458;DHT22;22480;50.546;12.292;2023-03-24T03:10:45;11.90;99.90
36458;DHT22;22480;50.546;12.292;2023-03-24T03:19:15;11.80;99.90
36458;DHT22;22480;50.546;12.292;2023-03-24T03:21:45;11.80;99.90
36458;DHT22;22480;50.546;12.292;2023-03-24T03:24:21;11.80;99.90
36458;DHT22;22480;50.546;12.292;2023-03-24T03:29:55;11.70;99.90
36458;DHT22;22480;50.546;12.292;2023-03-24T03:32:29;11.70;99.90
36458;DHT22;22480;50.546;12.292;2023-03-24T03:35:11;11.70;99.90
36458;DHT22;22480;50.546;12.292;2023-03-24T03:37:58;11.70;99.90
36458;DHT22;22480;50.546;12.292;2023-03-24T03:40:43;11.60;99.90
36458;DHT22;22480;50.546;12.292;2023-03-24T03:43:17;11.60;99.90
36458;DHT22;22480;50.546;12.292;2023-03-24T03:45:43;11.50;99.90
36458;DHT22;22480;50.546;12.292;2023-03-24T03:48:09;11.40;99.90
36458;DHT22;22480;50.546;12.292;2023-03-24T03:50:35;11.20;99.90
36458;DHT22;22480;50.546;12.292;2023-03-24T03:53:08;11.10;99.90
36458;DHT22;22480;50.546;12.292;2023-03-24T03:55:35;11.00;99.90
36458;DHT22;22480;50.546;12.292;2023-03-24T03:58:03;11.00;99.90
36458;DHT22;22480;50.546;12.292;2023-03-24T04:00:35;10.90;99.90
36458;DHT22;22480;50.546;12.292;2023-03-24T04:07:02;10.90;99.90
36458;DHT22;22480;50.546;12.292;2023-03-24T04:13:14;10.90;99.90
36458;DHT22;22480;50.546;12.292;2023-03-24T04:29:25;10.70;99.90
36458;DHT22;22480;50.546;12.292;2023-03-24T04:32:03;10.80;99.90
36458;DHT22;22480;50.546;12.292;2023-03-24T04:34:43;10.80;99.90
36458;DHT22;22480;50.546;12.292;2023-03-24T04:37:31;10.90;99.90
36458;DHT22;22480;50.546;12.292;2023-03-24T04:40:03;11.00;99.90
36458;DHT22;22480;50.546;12.292;2023-03-24T04:42:35;11.10;99.90
36458;DHT22;22480;50.546;12.292;2023-03-24T04:45:04;11.20;99.90
36458;DHT22;22480;50.546;12.292;2023-03-24T04:47:55;11.20;99.90
36458;DHT22;22480;50.546;12.292;2023-03-24T04:50:41;11.30;99.90
36458;DHT22;22480;50.546;12.292;2023-03-24T04:53:13;11.40;99.90
36458;DHT22;22480;50.546;12.292;2023-03-24T04:55:56;11.30;99.90
36458;DHT22;22480;50.546;12.292;2023-03-24T04:58:41;11.40;99.90
36458;DHT22;22480;50.546;12.292;2023-03-24T05:01:07;11.40;99.90
36458;DHT22;22480;50.546;12.292;2023-03-24T05:03:34;11.40;99.90
36458;DHT22;22480;50.546;12.292;2023-03-24T05:06:03;11.40;99.90
36458;DHT22;22480;50.546;12.292;2023-03-24T05:08:32;11.20;99.90
36458;DHT22;22480;50.546;12.292;2023-03-24T05:10:58;11.20;99.90
36458;DHT22;22480;50.546;12.292;2023-03-24T05:13:25;11.20;99.90
36458;DHT22;22480;50.546;12.292;2023-03-24T05:15:54;11.30;99.90
36458;DHT22;22480;50.546;12.292;2023-03-24T05:18:29;11.40;99.90
36458;DHT22;22480;50.546;12.292;2023-03-24T05:20:55;11.40;99.90
36458;DHT22;22480;50.546;12.292;2023-03-24T05:23:21;11.60;99.90
36458;DHT22;22480;50.546;12.292;2023-03-24T05:25:48;11.70;99.90
36458;DHT22;22480;50.546;12.292;2023-03-24T05:28:15;11.80;99.90
36458;DHT22;22480;50.546;12.292;2023-03-24T05:30:41;11.90;99.90
36458;DHT22;22480;50.546;12.292;2023-03-24T05:33:27;11.80;99.90
36458;DHT22;22480;50.546;12.292;2023-03-24T05:35:53;11.80;99.90
36458;DHT22;22480;50.546;12.292;2023-03-24T05:38:19;11.70;99.90
36458;DHT22;22480;50.546;12.292;2023-03-24T05:40:49;11.70;99.90
36458;DHT22;22480;50.546;12.292;2023-03-24T05:43:17;11.80;99.90
36458;DHT22;22480;50.546;12.292;2023-03-24T05:45:54;11.70;99.90
36458;DHT22;22480;50.546;12.292;2023-03-24T05:48:29;11.80;99.90
36458;DHT22;22480;50.546;12.292;2023-03-24T05:51:07;11.80;99.90
36458;DHT22;22480;50.546;12.292;2023-03-24T05:53:33;11.80;99.90
36458;DHT22;22480;50.546;12.292;2023-03-24T05:56:20;11.90;99.90
36458;DHT22;22480;50.546;12.292;2023-03-24T05:58:55;11.80;99.90
36458;DHT22;22480;50.546;12.292;2023-03-24T06:01:22;11.80;99.90
36458;DHT22;22480;50.546;12.292;2023-03-24T06:03:55;11.90;99.90
36458;DHT22;22480;50.546;12.292;2023-03-24T06:06:21;11.80;99.90
36458;DHT22;22480;50.546;12.292;2023-03-24T06:08:47;12.00;99.90
36458;DHT22;22480;50.546;12.292;2023-03-24T06:11:15;12.30;99.90
36458;DHT22;22480;50.546;12.292;2023-03-24T06:13:55;12.60;99.90
36458;DHT22;22480;50.546;12.292;2023-03-24T06:16:26;12.90;99.90
36458;DHT22;22480;50.546;12.292;2023-03-24T06:18:55;12.90;99.90
36458;DHT22;22480;50.546;12.292;2023-03-24T06:21:47;12.80;99.90
36458;DHT22;22480;50.546;12.292;2023-03-24T06:24:19;12.70;99.90
36458;DHT22;22480;50.546;12.292;2023-03-24T06:26:46;12.80;99.90
36458;DHT22;22480;50.546;12.292;2023-03-24T06:29:17;12.70;99.90
36458;DHT22;22480;50.546;12.292;2023-03-24T06:31:44;12.80;99.90
36458;DHT22;22480;50.546;12.292;2023-03-24T06:34:10;12.70;99.90
36458;DHT22;22480;50.546;12.292;2023-03-24T06:36:36;12.90;99.90
36458;DHT22;22480;50.546;12.292;2023-03-24T06:39:04;12.80;99.90
36458;DHT22;22480;50.546;12.292;2023-03-24T06:41:31;12.80;99.90
36458;DHT22;22480;50.546;12.292;2023-03-24T06:43:59;12.80;99.90
36458;DHT22;22480;50.546;12.292;2023-03-24T06:46:25;12.90;99.90
36458;DHT22;22480;50.546;12.292;2023-03-24T06:48:51;13.00;99.90
36458;DHT22;22480;50.546;12.292;2023-03-24T06:51:17;12.90;99.90
36458;DHT22;22480;50.546;12.292;2023-03-24T06:53:44;13.00;99.90
36458;DHT22;22480;50.546;12.292;2023-03-24T06:56:11;13.00;99.90
36458;DHT22;22480;50.546;12.292;2023-03-24T06:58:52;13.10;99.90
36458;DHT22;22480;50.546;12.292;2023-03-24T07:01:30;13.20;99.90
36458;DHT22;22480;50.546;12.292;2023-03-24T07:04:17;13.10;99.90
36458;DHT22;22480;50.546;12.292;2023-03-24T07:06:54;13.00;99.90
36458;DHT22;22480;50.546;12.292;2023-03-24T07:09:20;13.00;99.90
36458;DHT22;22480;50.546;12.292;2023-03-24T07:11:46;12.90;99.90
36458;DHT22;22480;50.546;12.292;2023-03-24T07:14:13;12.90;99.90
36458;DHT22;22480;50.546;12.292;2023-03-24T07:16:40;12.80;99.90
36458;DHT22;22480;50.546;12.292;2023-03-24T07:19:26;12.80;99.90
36458;DHT22;22480;50.546;12.292;2023-03-24T07:22:12;12.70;99.90
36458;DHT22;22480;50.546;12.292;2023-03-24T07:24:58;12.70;99.90
36458;DHT22;22480;50.546;12.292;2023-03-24T07:27:37;12.70;99.90
36458;DHT22;22480;50.546;12.292;2023-03-24T07:30:03;12.50;99.90
36458;DHT22;22480;50.546;12.292;2023-03-24T07:32:37;12.50;99.90
36458;DHT22;22480;50.546;12.292;2023-03-24T07:35:09;12.50;99.90
36458;DHT22;22480;50.546;12.292;2023-03-24T07:37:36;12.60;99.90
36458;DHT22;22480;50.546;12.292;2023-03-24T07:40:04;12.60;99.90
36458;DHT22;22480;50.546;12.292;2023-03-24T07:42:31;12.60;99.90
36458;DHT22;22480;50.546;12.292;2023-03-24T07:45:26;12.80;99.90
36458;DHT22;22480;50.546;12.292;2023-03-24T07:47:52;12.90;99.90
36458;DHT22;22480;50.546;12.292;2023-03-24T07:50:18;12.90;99.90
36458;DHT22;22480;50.546;12.292;2023-03-24T07:52:49;12.80;99.90
36458;DHT22;22480;50.546;12.292;2023-03-24T07:55:18;12.90;99.90
36458;DHT22;22480;50.546;12.292;2023-03-24T07:57:53;12.90;99.90
36458;DHT22;22480;50.546;12.292;2023-03-24T08:00:20;13.10;99.90
36458;DHT22;22480;50.546;12.292;2023-03-24T08:02:56;13.20;99.90
36458;DHT22;22480;50.546;12.292;2023-03-24T08:05:41;13.30;99.90
36458;DHT22;22480;50.546;12.292;2023-03-24T08:08:18;13.30;99.90
36458;DHT22;22480;50.546;12.292;2023-03-24T08:10:43;13.10;99.90
36458;DHT22;22480;50.546;12.292;2023-03-24T08:13:10;12.90;99.90
36458;DHT22;22480;50.546;12.292;2023-03-24T08:15:36;12.70;99.90
36458;DHT22;22480;50.546;12.292;2023-03-24T08:18:02;12.50;99.90
36458;DHT22;22480;50.546;12.292;2023-03-24T08:20:28;12.50;99.90
36458;DHT22;22480;50.546;12.292;2023-03-24T08:22:54;12.50;99.90
36458;DHT22;22480;50.546;12.292;2023-03-24T08:25:22;12.50;99.90
36458;DHT22;22480;50.546;12.292;2023-03-24T08:27:48;12.70;99.90
36458;DHT22;22480;50.546;12.292;2023-03-24T08:30:16;12.60;99.90
36458;DHT22;22480;50.546;12.292;2023-03-24T08:32:48;12.50;99.90
36458;DHT22;22480;50.546;12.292;2023-03-24T08:35:16;12.50;99.90
36458;DHT22;22480;50.546;12.292;2023-03-24T08:37:43;12.70;99.90
36458;DHT22;22480;50.546;12.292;2023-03-24T08:40:11;12.80;99.90
36458;DHT22;22480;50.546;12.292;2023-03-24T08:42:38;12.80;99.90
36458;DHT22;22480;50.546;12.292;2023-03-24T08:45:05;12.80;99.90
36458;DHT22;22480;50.546;12.292;2023-03-24T08:47:31;12.90;99.90
36458;DHT22;22480;50.546;12.292;2023-03-24T08:49:57;13.00;99.90
36458;DHT22;22480;50.546;12.292;2023-03-24T08:52:24;13.00;99.90
36458;DHT22;22480;50.546;12.292;2023-03-24T08:54:50;13.10;99.90
36458;DHT22;22480;50.546;12.292;2023-03-24T08:57:16;13.10;99.90
36458;DHT22;22480;50.546;12.292;2023-03-24T08:59:42;13.10;99.90
36458;DHT22;22480;50.546;12.292;2023-03-24T09:02:10;13.20;99.90
36458;DHT22;22480;50.546;12.292;2023-03-24T09:04:36;13.50;99.90
36458;DHT22;22480;50.546;12.292;2023-03-24T09:07:02;13.60;99.90
36458;DHT22;22480;50.546;12.292;2023-03-24T09:09:29;13.80;99.90
36458;DHT22;22480;50.546;12.292;2023-03-24T09:11:54;13.90;99.90
36458;DHT22;22480;50.546;12.292;2023-03-24T09:14:20;14.20;99.90
36458;DHT22;22480;50.546;12.292;2023-03-24T09:16:47;14.20;99.90
36458;DHT22;22480;50.546;12.292;2023-03-24T09:19:15;14.20;99.90
36458;DHT22;22480;50.546;12.292;2023-03-24T09:21:45;14.10;99.90
36458;DHT22;22480;50.546;12.292;2023-03-24T09:24:12;14.00;99.90
36458;DHT22;22480;50.546;12.292;2023-03-24T09:26:38;13.80;99.90
36458;DHT22;22480;50.546;12.292;2023-03-24T09:29:04;13.60;99.90
36458;DHT22;22480;50.546;12.292;2023-03-24T09:31:30;13.80;99.90
36458;DHT22;22480;50.546;12.292;2023-03-24T09:33:56;14.10;99.90
36458;DHT22;22480;50.546;12.292;2023-03-24T09:36:22;14.30;99.90
36458;DHT22;22480;50.546;12.292;2023-03-24T09:38:48;14.30;99.90
36458;DHT22;22480;50.546;12.292;2023-03-24T09:41:23;14.50;99.90
36458;DHT22;22480;50.546;12.292;2023-03-24T09:44:02;14.60;99.90
36458;DHT22;22480;50.546;12.292;2023-03-24T09:46:55;14.40;99.90
36458;DHT22;22480;50.546;12.292;2023-03-24T09:49:23;14.40;99.90
36458;DHT22;22480;50.546;12.292;2023-03-24T09:52:14;14.40;99.90
36458;DHT22;22480;50.546;12.292;2023-03-24T09:54:52;14.40;99.90
36458;DHT22;22480;50.546;12.292;2023-03-24T09:57:29;14.50;99.90
36458;DHT22;22480;50.546;12.292;2023-03-24T09:59:57;14.60;99.90
36458;DHT22;22480;50.546;12.292;2023-03-24T10:02:22;14.60;99.90
36458;DHT22;22480;50.546;12.292;2023-03-24T10:04:49;14.70;99.90
36458;DHT22;22480;50.546;12.292;2023-03-24T10:07:30;14.80;99.90
36458;DHT22;22480;50.546;12.292;2023-03-24T10:09:58;14.70;99.90
36458;DHT22;22480;50.546;12.292;2023-03-24T10:12:38;14.70;99.90
36458;DHT22;22480;50.546;12.292;2023-03-24T10:15:27;14.60;99.90
36458;DHT22;22480;50.546;12.292;2023-03-24T10:21:04;14.30;99.90
36458;DHT22;22480;50.546;12.292;2023-03-24T10:26:17;14.30;99.90
36458;DHT22;22480;50.546;12.292;2023-03-24T10:28:52;14.40;99.90
36458;DHT22;22480;50.546;12.292;2023-03-24T10:31:31;14.60;99.90
36458;DHT22;22480;50.546;12.292;2023-03-24T10:33:58;14.50;99.90
36458;DHT22;22480;50.546;12.292;2023-03-24T10:36:25;14.30;99.90
36458;DHT22;22480;50.546;12.292;2023-03-24T10:38:52;14.20;99.90
36458;DHT22;22480;50.546;12.292;2023-03-24T10:41:23;13.90;99.90
36458;DHT22;22480;50.546;12.292;2023-03-24T10:43:55;13.70;99.90
36458;DHT22;22480;50.546;12.292;2023-03-24T10:46:24;13.80;99.90
36458;DHT22;22480;50.546;12.292;2023-03-24T10:51:34;14.10;99.90
36458;DHT22;22480;50.546;12.292;2023-03-24T10:54:11;14.40;99.90
36458;DHT22;22480;50.546;12.292;2023-03-24T11:02:20;14.00;99.90
36458;DHT22;22480;50.546;12.292;2023-03-24T11:04:56;13.60;99.90
36458;DHT22;22480;50.546;12.292;2023-03-24T11:07:40;13.20;99.90
36458;DHT22;22480;50.546;12.292;2023-03-24T11:10:14;12.90;99.90
36458;DHT22;22480;50.546;12.292;2023-03-24T11:15:22;12.70;99.90
36458;DHT22;22480;50.546;12.292;2023-03-24T11:17:56;12.80;99.90
36458;DHT22;22480;50.546;12.292;2023-03-24T11:20:46;13.00;99.90
36458;DHT22;22480;50.546;12.292;2023-03-24T11:23:31;13.30;99.90
36458;DHT22;22480;50.546;12.292;2023-03-24T11:26:21;13.10;99.90
36458;DHT22;22480;50.546;12.292;2023-03-24T11:28:55;12.80;99.90
36458;DHT22;22480;50.546;12.292;2023-03-24T11:31:29;12.60;99.90
36458;DHT22;22480;50.546;12.292;2023-03-24T11:41:24;12.80;99.90
36458;DHT22;22480;50.546;12.292;2023-03-24T11:43:50;13.00;99.90
36458;DHT22;22480;50.546;12.292;2023-03-24T11:46:17;13.10;99.90
36458;DHT22;22480;50.546;12.292;2023-03-24T11:48:54;13.20;99.90
36458;DHT22;22480;50.546;12.292;2023-03-24T11:51:28;13.20;99.90
36458;DHT22;22480;50.546;12.292;2023-03-24T11:53:55;13.30;99.90
36458;DHT22;22480;50.546;12.292;2023-03-24T11:56:35;13.20;99.90
36458;DHT22;22480;50.546;12.292;2023-03-24T12:01:45;13.20;99.90
36458;DHT22;22480;50.546;12.292;2023-03-24T12:07:29;13.30;99.90
36458;DHT22;22480;50.546;12.292;2023-03-24T12:10:24;13.30;99.90
36458;DHT22;22480;50.546;12.292;2023-03-24T12:14:03;13.20;99.90
36458;DHT22;22480;50.546;12.292;2023-03-24T12:16:19;13.30;99.90
36458;DHT22;22480;50.546;12.292;2023-03-24T12:26:59;14.10;99.90
36458;DHT22;22480;50.546;12.292;2023-03-24T12:29:52;14.00;99.90
36458;DHT22;22480;50.546;12.292;2023-03-24T12:35:17;13.70;99.90
36458;DHT22;22480;50.546;12.292;2023-03-24T12:51:46;14.90;99.90
36458;DHT22;22480;50.546;12.292;2023-03-24T12:54:32;15.10;99.90
36458;DHT22;22480;50.546;12.292;2023-03-24T12:57:05;14.80;99.90
36458;DHT22;22480;50.546;12.292;2023-03-24T12:59:38;14.40;99.90
36458;DHT22;22480;50.546;12.292;2023-03-24T13:02:26;14.00;99.90
36458;DHT22;22480;50.546;12.292;2023-03-24T13:04:58;13.80;99.90
36458;DHT22;22480;50.546;12.292;2023-03-24T13:07:29;13.60;99.90
36458;DHT22;22480;50.546;12.292;2023-03-24T13:09:56;13.60;99.90
36458;DHT22;22480;50.546;12.292;2023-03-24T13:12:40;13.70;99.90
36458;DHT22;22480;50.546;12.292;2023-03-24T13:26:05;12.40;99.90
36458;DHT22;22480;50.546;12.292;2023-03-24T13:28:43;11.50;99.90
36458;DHT22;22480;50.546;12.292;2023-03-24T13:31:12;10.60;99.90
36458;DHT22;22480;50.546;12.292;2023-03-24T13:33:39;9.90;99.90
36458;DHT22;22480;50.546;12.292;2023-03-24T13:39:05;9.10;99.90
36458;DHT22;22480;50.546;12.292;2023-03-24T13:41:35;9.00;99.90
36458;DHT22;22480;50.546;12.292;2023-03-24T13:44:40;8.90;99.90
36458;DHT22;22480;50.546;12.292;2023-03-24T13:47:17;8.90;99.90
36458;DHT22;22480;50.546;12.292;2023-03-24T13:50:04;8.90;99.90
36458;DHT22;22480;50.546;12.292;2023-03-24T13:54:58;9.00;99.90
36458;DHT22;22480;50.546;12.292;2023-03-24T13:57:25;9.10;99.90
36458;DHT22;22480;50.546;12.292;2023-03-24T14:02:50;9.10;99.90
36458;DHT22;22480;50.546;12.292;2023-03-24T14:05:32;9.10;99.90
36458;DHT22;22480;50.546;12.292;2023-03-24T14:10:50;9.20;99.90
36458;DHT22;22480;50.546;12.292;2023-03-24T14:23:41;9.90;99.90
36458;DHT22;22480;50.546;12.292;2023-03-24T14:28:47;10.20;99.90
36458;DHT22;22480;50.546;12.292;2023-03-24T14:36:39;10.30;99.90
36458;DHT22;22480;50.546;12.292;2023-03-24T14:42:00;10.40;99.90
36458;DHT22;22480;50.546;12.292;2023-03-24T14:47:32;10.50;99.90
36458;DHT22;22480;50.546;12.292;2023-03-24T14:50:00;10.50;99.90
36458;DHT22;22480;50.546;12.292;2023-03-24T14:52:31;10.60;99.90
36458;DHT22;22480;50.546;12.292;2023-03-24T14:54:59;10.80;99.90
36458;DHT22;22480;50.546;12.292;2023-03-24T14:57:40;10.80;99.90
36458;DHT22;22480;50.546;12.292;2023-03-24T15:00:07;11.00;99.90
36458;DHT22;22480;50.546;12.292;2023-03-24T15:02:41;11.30;99.90
36458;DHT22;22480;50.546;12.292;2023-03-24T15:07:40;12.50;99.90
36458;DHT22;22480;50.546;12.292;2023-03-24T15:10:12;12.70;99.90
36458;DHT22;22480;50.546;12.292;2023-03-24T15:12:45;12.50;99.90
36458;DHT22;22480;50.546;12.292;2023-03-24T15:15:17;12.30;99.90
36458;DHT22;22480;50.546;12.292;2023-03-24T15:17:44;11.80;99.90
36458;DHT22;22480;50.546;12.292;2023-03-24T15:20:28;11.50;99.90
36458;DHT22;22480;50.546;12.292;2023-03-24T15:23:04;11.10;99.90
36458;DHT22;22480;50.546;12.292;2023-03-24T15:25:30;10.90;99.90
36458;DHT22;22480;50.546;12.292;2023-03-24T15:27:56;10.90;99.90
36458;DHT22;22480;50.546;12.292;2023-03-24T15:30:22;10.80;99.90
36458;DHT22;22480;50.546;12.292;2023-03-24T15:32:49;10.80;99.90
36458;DHT22;22480;50.546;12.292;2023-03-24T15:35:22;11.00;99.90
36458;DHT22;22480;50.546;12.292;2023-03-24T15:37:55;10.90;99.90
36458;DHT22;22480;50.546;12.292;2023-03-24T15:42:59;11.10;99.90
36458;DHT22;22480;50.546;12.292;2023-03-24T15:45:26;11.10;99.90
36458;DHT22;22480;50.546;12.292;2023-03-24T15:47:53;11.20;99.90
36458;DHT22;22480;50.546;12.292;2023-03-24T15:50:37;11.10;99.90
36458;DHT22;22480;50.546;12.292;2023-03-24T15:55:44;11.20;99.90
36458;DHT22;22480;50.546;12.292;2023-03-24T15:58:23;11.30;99.90
36458;DHT22;22480;50.546;12.292;2023-03-24T16:00:52;11.70;99.90
36458;DHT22;22480;50.546;12.292;2023-03-24T16:03:20;12.40;99.90
36458;DHT22;22480;50.546;12.292;2023-03-24T16:05:52;12.80;99.90
36458;DHT22;22480;50.546;12.292;2023-03-24T16:08:27;12.70;99.90
36458;DHT22;22480;50.546;12.292;2023-03-24T16:11:02;12.40;99.90
36458;DHT22;22480;50.546;12.292;2023-03-24T16:13:33;11.90;99.90
36458;DHT22;22480;50.546;12.292;2023-03-24T16:16:00;11.50;99.90
36458;DHT22;22480;50.546;12.292;2023-03-24T16:18:36;11.10;99.90
36458;DHT22;22480;50.546;12.292;2023-03-24T16:21:15;11.00;99.90
36458;DHT22;22480;50.546;12.292;2023-03-24T16:23:42;10.80;99.90
36458;DHT22;22480;50.546;12.292;2023-03-24T16:26:29;10.70;99.90
36458;DHT22;22480;50.546;12.292;2023-03-24T16:29:12;10.40;99.90
36458;DHT22;22480;50.546;12.292;2023-03-24T16:31:39;10.40;99.90
36458;DHT22;22480;50.546;12.292;2023-03-24T16:34:04;10.20;99.90
36458;DHT22;22480;50.546;12.292;2023-03-24T16:36:30;10.20;99.90
36458;DHT22;22480;50.546;12.292;2023-03-24T16:38:57;10.20;99.90
36458;DHT22;22480;50.546;12.292;2023-03-24T16:41:23;10.10;99.90
36458;DHT22;22480;50.546;12.292;2023-03-24T16:43:49;10.10;99.90
36458;DHT22;22480;50.546;12.292;2023-03-24T16:48:47;9.90;99.90
36458;DHT22;22480;50.546;12.292;2023-03-24T16:51:14;9.80;99.90
36458;DHT22;22480;50.546;12.292;2023-03-24T16:53:40;9.80;99.90
36458;DHT22;22480;50.546;12.292;2023-03-24T16:56:07;9.70;99.90
36458;DHT22;22480;50.546;12.292;2023-03-24T16:58:33;9.70;99.90
36458;DHT22;22480;50.546;12.292;2023-03-24T17:00:58;9.60;99.90
36458;DHT22;22480;50.546;12.292;2023-03-24T17:03:26;9.60;99.90
36458;DHT22;22480;50.546;12.292;2023-03-24T17:05:56;9.50;99.90
36458;DHT22;22480;50.546;12.292;2023-03-24T17:08:22;9.40;99.90
36458;DHT22;22480;50.546;12.292;2023-03-24T17:10:50;9.50;99.90
36458;DHT22;22480;50.546;12.292;2023-03-24T17:13:19;9.70;99.90
36458;DHT22;22480;50.546;12.292;2023-03-24T17:15:45;10.10;99.90
36458;DHT22;22480;50.546;12.292;2023-03-24T17:18:11;10.40;99.90
36458;DHT22;22480;50.546;12.292;2023-03-24T17:20:36;10.40;99.90
36458;DHT22;22480;50.546;12.292;2023-03-24T17:23:06;10.30;99.90
36458;DHT22;22480;50.546;12.292;2023-03-24T17:25:32;10.10;99.90
36458;DHT22;22480;50.546;12.292;2023-03-24T17:27:58;9.70;99.90
36458;DHT22;22480;50.546;12.292;2023-03-24T17:30:26;9.40;99.90
36458;DHT22;22480;50.546;12.292;2023-03-24T17:32:51;9.10;99.90
36458;DHT22;22480;50.546;12.292;2023-03-24T17:35:21;8.80;99.90
36458;DHT22;22480;50.546;12.292;2023-03-24T17:37:47;8.70;99.90
36458;DHT22;22480;50.546;12.292;2023-03-24T17:40:15;8.50;99.90
36458;DHT22;22480;50.546;12.292;2023-03-24T17:42:42;8.50;99.90
36458;DHT22;22480;50.546;12.292;2023-03-24T17:45:11;8.40;99.90
36458;DHT22;22480;50.546;12.292;2023-03-24T17:47:37;8.20;99.90
36458;DHT22;22480;50.546;12.292;2023-03-24T17:50:05;8.20;99.90
36458;DHT22;22480;50.546;12.292;2023-03-24T17:52:34;8.10;99.90
36458;DHT22;22480;50.546;12.292;2023-03-24T17:55:00;8.00;99.90
36458;DHT22;22480;50.546;12.292;2023-03-24T17:57:29;7.90;99.90
36458;DHT22;22480;50.546;12.292;2023-03-24T17:59:55;8.00;99.90
36458;DHT22;22480;50.546;12.292;2023-03-24T18:02:21;8.00;99.90
36458;DHT22;22480;50.546;12.292;2023-03-24T18:04:47;8.00;99.90
36458;DHT22;22480;50.546;12.292;2023-03-24T18:07:13;7.90;99.90
36458;DHT22;22480;50.546;12.292;2023-03-24T18:09:38;7.80;99.90
36458;DHT22;22480;50.546;12.292;2023-03-24T18:12:05;7.70;99.90
36458;DHT22;22480;50.546;12.292;2023-03-24T18:14:30;7.60;99.90
36458;DHT22;22480;50.546;12.292;2023-03-24T18:16:56;7.60;99.90
36458;DHT22;22480;50.546;12.292;2023-03-24T18:19:22;7.60;99.90
36458;DHT22;22480;50.546;12.292;2023-03-24T18:21:47;7.50;99.90
36458;DHT22;22480;50.546;12.292;2023-03-24T18:24:13;7.50;99.90
36458;DHT22;22480;50.546;12.292;2023-03-24T18:26:39;7.40;99.90
36458;DHT22;22480;50.546;12.292;2023-03-24T18:29:04;7.40;99.90
36458;DHT22;22480;50.546;12.292;2023-03-24T18:31:31;7.30;99.90
36458;DHT22;22480;50.546;12.292;2023-03-24T18:33:57;7.30;99.90
36458;DHT22;22480;50.546;12.292;2023-03-24T18:36:23;7.30;99.90